sensor_id;sensor_type;location;lat;lon;timestamp;temperature;humidity
6270;DHT22;3168;51.684;6.954;2023-03-07T00:02:25;4.10;12.20
6270;DHT22;3168;51.684;6.954;2023-03-07T00:04:51;4.20;14.10
6270;DHT22;3168;51.684;6.954;2023-03-07T00:07:17;4.20;16.10
6270;DHT22;3168;51.684;6.954;2023-03-07T00:09:43;4.10;18.10
6270;DHT22;3168;51.684;6.954;2023-03-07T00:12:09;4.20;19.10
6270;DHT22;3168;51.684;6.954;2023-03-07T00:14:34;4.20;21.40
6270;DHT22;3168;51.684;6.954;2023-03-07T00:17:00;4.10;21.80
6270;DHT22;3168;51.684;6.954;2023-03-07T00:19:26;4.20;23.30
6270;DHT22;3168;51.684;6.954;2023-03-07T00:21:52;4.20;25.30
6270;DHT22;3168;51.684;6.954;2023-03-07T00:24:17;4.20;25.80
6270;DHT22;3168;51.684;6.954;2023-03-07T00:26:43;4.30;27.50
6270;DHT22;3168;51.684;6.954;2023-03-07T00:29:09;4.20;27.60
6270;DHT22;3168;51.684;6.954;2023-03-07T00:31:35;4.30;29.20
6270;DHT22;3168;51.684;6.954;2023-03-07T00:34:01;4.30;29.60
6270;DHT22;3168;51.684;6.954;2023-03-07T00:36:27;4.30;29.70
6270;DHT22;3168;51.684;6.954;2023-03-07T00:38:53;4.30;30.30
6270;DHT22;3168;51.684;6.954;2023-03-07T00:41:21;4.30;31.80
6270;DHT22;3168;51.684;6.954;2023-03-07T00:43:46;4.30;31.00
6270;DHT22;3168;51.684;6.954;2023-03-07T00:46:12;4.30;29.50
6270;DHT22;3168;51.684;6.954;2023-03-07T00:48:38;4.40;29.50
6270;DHT22;3168;51.684;6.954;2023-03-07T00:51:05;4.20;29.60
6270;DHT22;3168;51.684;6.954;2023-03-07T00:53:30;4.40;32.30
6270;DHT22;3168;51.684;6.954;2023-03-07T00:56:01;4.40;32.70
6270;DHT22;3168;51.684;6.954;2023-03-07T00:58:27;4.40;25.90
6270;DHT22;3168;51.684;6.954;2023-03-07T01:00:52;4.40;22.20
6270;DHT22;3168;51.684;6.954;2023-03-07T01:03:18;4.40;24.10
6270;DHT22;3168;51.684;6.954;2023-03-07T01:05:44;4.40;24.80
6270;DHT22;3168;51.684;6.954;2023-03-07T01:08:10;4.40;24.40
6270;DHT22;3168;51.684;6.954;2023-03-07T01:10:35;4.30;25.00
6270;DHT22;3168;51.684;6.954;2023-03-07T01:13:01;4.30;25.20
6270;DHT22;3168;51.684;6.954;2023-03-07T01:15:27;4.40;25.60
6270;DHT22;3168;51.684;6.954;2023-03-07T01:17:53;4.30;25.30
6270;DHT22;3168;51.684;6.954;2023-03-07T01:20:19;4.40;25.40
6270;DHT22;3168;51.684;6.954;2023-03-07T01:22:44;4.40;25.40
6270;DHT22;3168;51.684;6.954;2023-03-07T01:25:10;4.40;25.70
6270;DHT22;3168;51.684;6.954;2023-03-07T01:27:36;4.40;25.70
6270;DHT22;3168;51.684;6.954;2023-03-07T01:30:03;4.30;25.80
6270;DHT22;3168;51.684;6.954;2023-03-07T01:32:28;4.40;26.10
6270;DHT22;3168;51.684;6.954;2023-03-07T01:34:54;4.40;26.10
6270;DHT22;3168;51.684;6.954;2023-03-07T01:37:20;4.30;25.70
6270;DHT22;3168;51.684;6.954;2023-03-07T01:39:49;4.30;25.70
6270;DHT22;3168;51.684;6.954;2023-03-07T01:42:12;4.40;22.20
6270;DHT22;3168;51.684;6.954;2023-03-07T01:47:09;4.40;21.90
6270;DHT22;3168;51.684;6.954;2023-03-07T01:49:37;4.40;20.90
6270;DHT22;3168;51.684;6.954;2023-03-07T01:52:06;4.40;20.50
6270;DHT22;3168;51.684;6.954;2023-03-07T01:54:31;4.30;20.50
6270;DHT22;3168;51.684;6.954;2023-03-07T01:56:57;4.30;21.70
6270;DHT22;3168;51.684;6.954;2023-03-07T01:59:26;4.30;22.00
6270;DHT22;3168;51.684;6.954;2023-03-07T02:01:49;4.30;22.10
6270;DHT22;3168;51.684;6.954;2023-03-07T02:04:17;4.30;22.00
6270;DHT22;3168;51.684;6.954;2023-03-07T02:06:42;4.30;20.50
6270;DHT22;3168;51.684;6.954;2023-03-07T02:09:09;4.30;18.40
6270;DHT22;3168;51.684;6.954;2023-03-07T02:11:34;4.30;18.20
6270;DHT22;3168;51.684;6.954;2023-03-07T02:14:00;4.30;18.30
6270;DHT22;3168;51.684;6.954;2023-03-07T02:16:26;4.30;18.70
6270;DHT22;3168;51.684;6.954;2023-03-07T02:18:52;4.40;18.30
6270;DHT22;3168;51.684;6.954;2023-03-07T02:21:24;4.30;18.50
6270;DHT22;3168;51.684;6.954;2023-03-07T02:23:51;4.40;19.50
6270;DHT22;3168;51.684;6.954;2023-03-07T02:26:18;4.40;19.90
6270;DHT22;3168;51.684;6.954;2023-03-07T02:28:42;4.40;20.20
6270;DHT22;3168;51.684;6.954;2023-03-07T02:31:08;4.30;18.40
6270;DHT22;3168;51.684;6.954;2023-03-07T02:33:33;4.20;14.30
6270;DHT22;3168;51.684;6.954;2023-03-07T02:36:03;4.30;12.50
6270;DHT22;3168;51.684;6.954;2023-03-07T02:38:27;4.20;5.70
6270;DHT22;3168;51.684;6.954;2023-03-07T02:40:53;4.20;4.50
6270;DHT22;3168;51.684;6.954;2023-03-07T02:43:19;4.20;2.00
6270;DHT22;3168;51.684;6.954;2023-03-07T02:45:45;4.10;1.00
6270;DHT22;3168;51.684;6.954;2023-03-07T02:48:11;4.30;1.00
6270;DHT22;3168;51.684;6.954;2023-03-07T02:50:37;4.20;1.00
6270;DHT22;3168;51.684;6.954;2023-03-07T02:53:03;4.20;1.00
6270;DHT22;3168;51.684;6.954;2023-03-07T02:55:29;4.20;1.00
6270;DHT22;3168;51.684;6.954;2023-03-07T02:57:54;4.20;1.00
6270;DHT22;3168;51.684;6.954;2023-03-07T03:00:20;4.20;1.00
6270;DHT22;3168;51.684;6.954;2023-03-07T03:02:46;4.20;1.00
6270;DHT22;3168;51.684;6.954;2023-03-07T03:05:12;4.20;1.00
6270;DHT22;3168;51.684;6.954;2023-03-07T03:07:38;4.20;1.00
6270;DHT22;3168;51.684;6.954;2023-03-07T03:10:05;4.20;1.00
6270;DHT22;3168;51.684;6.954;2023-03-07T03:12:30;4.20;1.00
6270;DHT22;3168;51.684;6.954;2023-03-07T03:14:56;4.20;1.00
6270;DHT22;3168;51.684;6.954;2023-03-07T03:17:22;4.30;1.00
6270;DHT22;3168;51.684;6.954;2023-03-07T03:19:48;4.20;1.50
6270;DHT22;3168;51.684;6.954;2023-03-07T03:22:14;4.20;1.80
6270;DHT22;3168;51.684;6.954;2023-03-07T03:24:40;4.20;2.10
6270;DHT22;3168;51.684;6.954;2023-03-07T03:27:06;4.20;3.10
6270;DHT22;3168;51.684;6.954;2023-03-07T03:29:32;4.20;4.20
6270;DHT22;3168;51.684;6.954;2023-03-07T03:31:57;4.20;6.10
6270;DHT22;3168;51.684;6.954;2023-03-07T03:34:23;4.20;7.50
6270;DHT22;3168;51.684;6.954;2023-03-07T03:36:49;4.20;9.20
6270;DHT22;3168;51.684;6.954;2023-03-07T03:39:15;4.20;11.10
6270;DHT22;3168;51.684;6.954;2023-03-07T03:41:41;4.10;14.10
6270;DHT22;3168;51.684;6.954;2023-03-07T03:44:07;4.10;13.10
6270;DHT22;3168;51.684;6.954;2023-03-07T03:46:33;4.00;14.00
6270;DHT22;3168;51.684;6.954;2023-03-07T03:48:58;4.10;16.40
6270;DHT22;3168;51.684;6.954;2023-03-07T03:51:24;4.00;18.60
6270;DHT22;3168;51.684;6.954;2023-03-07T03:53:50;4.00;21.50
6270;DHT22;3168;51.684;6.954;2023-03-07T03:56:17;4.00;21.20
6270;DHT22;3168;51.684;6.954;2023-03-07T03:58:42;4.00;21.40
6270;DHT22;3168;51.684;6.954;2023-03-07T04:01:09;4.00;21.80
6270;DHT22;3168;51.684;6.954;2023-03-07T04:03:35;4.00;21.90
6270;DHT22;3168;51.684;6.954;2023-03-07T04:06:01;4.00;23.40
6270;DHT22;3168;51.684;6.954;2023-03-07T04:08:26;3.90;23.00
6270;DHT22;3168;51.684;6.954;2023-03-07T04:10:52;3.90;23.90
6270;DHT22;3168;51.684;6.954;2023-03-07T04:13:18;3.90;22.30
6270;DHT22;3168;51.684;6.954;2023-03-07T04:15:44;3.90;21.90
6270;DHT22;3168;51.684;6.954;2023-03-07T04:18:09;3.80;21.80
6270;DHT22;3168;51.684;6.954;2023-03-07T04:20:35;3.90;23.90
6270;DHT22;3168;51.684;6.954;2023-03-07T04:23:01;3.80;23.10
6270;DHT22;3168;51.684;6.954;2023-03-07T04:25:27;3.90;22.10
6270;DHT22;3168;51.684;6.954;2023-03-07T04:27:53;3.80;21.70
6270;DHT22;3168;51.684;6.954;2023-03-07T04:30:19;3.70;22.00
6270;DHT22;3168;51.684;6.954;2023-03-07T04:32:44;3.70;23.20
6270;DHT22;3168;51.684;6.954;2023-03-07T04:35:10;3.70;24.00
6270;DHT22;3168;51.684;6.954;2023-03-07T04:37:36;3.70;23.40
6270;DHT22;3168;51.684;6.954;2023-03-07T04:40:02;3.70;25.00
6270;DHT22;3168;51.684;6.954;2023-03-07T04:42:28;3.60;25.60
6270;DHT22;3168;51.684;6.954;2023-03-07T04:44:54;3.70;27.30
6270;DHT22;3168;51.684;6.954;2023-03-07T04:47:20;3.70;29.00
6270;DHT22;3168;51.684;6.954;2023-03-07T04:49:46;3.70;30.00
6270;DHT22;3168;51.684;6.954;2023-03-07T04:52:12;3.60;31.50
6270;DHT22;3168;51.684;6.954;2023-03-07T04:54:37;3.60;33.50
6270;DHT22;3168;51.684;6.954;2023-03-07T04:57:03;3.60;33.90
6270;DHT22;3168;51.684;6.954;2023-03-07T04:59:30;3.60;33.60
6270;DHT22;3168;51.684;6.954;2023-03-07T05:01:56;3.60;35.20
6270;DHT22;3168;51.684;6.954;2023-03-07T05:04:22;3.60;35.90
6270;DHT22;3168;51.684;6.954;2023-03-07T05:06:48;3.60;35.30
6270;DHT22;3168;51.684;6.954;2023-03-07T05:09:13;3.60;37.50
6270;DHT22;3168;51.684;6.954;2023-03-07T05:11:40;3.60;38.10
6270;DHT22;3168;51.684;6.954;2023-03-07T05:14:06;3.60;37.00
6270;DHT22;3168;51.684;6.954;2023-03-07T05:16:31;3.50;35.70
6270;DHT22;3168;51.684;6.954;2023-03-07T05:18:57;3.50;36.00
6270;DHT22;3168;51.684;6.954;2023-03-07T05:21:23;3.50;34.50
6270;DHT22;3168;51.684;6.954;2023-03-07T05:23:51;3.60;37.20
6270;DHT22;3168;51.684;6.954;2023-03-07T05:26:17;3.50;37.10
6270;DHT22;3168;51.684;6.954;2023-03-07T05:28:43;3.50;38.00
6270;DHT22;3168;51.684;6.954;2023-03-07T05:31:08;3.50;38.10
6270;DHT22;3168;51.684;6.954;2023-03-07T05:33:34;3.40;39.00
6270;DHT22;3168;51.684;6.954;2023-03-07T05:36:00;3.40;39.40
6270;DHT22;3168;51.684;6.954;2023-03-07T05:38:26;3.20;40.50
6270;DHT22;3168;51.684;6.954;2023-03-07T05:40:52;3.40;42.60
6270;DHT22;3168;51.684;6.954;2023-03-07T05:43:18;3.40;42.90
6270;DHT22;3168;51.684;6.954;2023-03-07T05:45:43;3.50;45.80
6270;DHT22;3168;51.684;6.954;2023-03-07T05:48:09;3.50;47.40
6270;DHT22;3168;51.684;6.954;2023-03-07T05:50:36;3.50;47.60
6270;DHT22;3168;51.684;6.954;2023-03-07T05:53:01;3.40;47.30
6270;DHT22;3168;51.684;6.954;2023-03-07T05:55:27;3.40;47.30
6270;DHT22;3168;51.684;6.954;2023-03-07T05:57:53;3.40;44.80
6270;DHT22;3168;51.684;6.954;2023-03-07T06:00:19;3.30;42.70
6270;DHT22;3168;51.684;6.954;2023-03-07T06:02:45;3.40;45.40
6270;DHT22;3168;51.684;6.954;2023-03-07T06:05:11;3.40;47.90
6270;DHT22;3168;51.684;6.954;2023-03-07T06:07:37;3.40;49.50
6270;DHT22;3168;51.684;6.954;2023-03-07T06:10:04;3.40;50.90
6270;DHT22;3168;51.684;6.954;2023-03-07T06:12:30;3.40;50.40
6270;DHT22;3168;51.684;6.954;2023-03-07T06:14:56;3.40;50.70
6270;DHT22;3168;51.684;6.954;2023-03-07T06:17:21;3.20;51.30
6270;DHT22;3168;51.684;6.954;2023-03-07T06:19:47;3.30;49.20
6270;DHT22;3168;51.684;6.954;2023-03-07T06:22:13;3.40;49.70
6270;DHT22;3168;51.684;6.954;2023-03-07T06:24:39;3.50;49.40
6270;DHT22;3168;51.684;6.954;2023-03-07T06:27:05;3.40;50.10
6270;DHT22;3168;51.684;6.954;2023-03-07T06:29:31;3.40;50.20
6270;DHT22;3168;51.684;6.954;2023-03-07T06:31:57;3.40;51.80
6270;DHT22;3168;51.684;6.954;2023-03-07T06:34:22;3.40;52.00
6270;DHT22;3168;51.684;6.954;2023-03-07T06:36:48;3.40;53.30
6270;DHT22;3168;51.684;6.954;2023-03-07T06:39:14;3.50;54.50
6270;DHT22;3168;51.684;6.954;2023-03-07T06:41:42;3.50;56.00
6270;DHT22;3168;51.684;6.954;2023-03-07T06:44:08;3.50;57.60
6270;DHT22;3168;51.684;6.954;2023-03-07T06:46:33;3.50;58.60
6270;DHT22;3168;51.684;6.954;2023-03-07T06:49:00;3.50;60.70
6270;DHT22;3168;51.684;6.954;2023-03-07T06:51:26;3.50;60.70
6270;DHT22;3168;51.684;6.954;2023-03-07T06:53:52;3.50;63.30
6270;DHT22;3168;51.684;6.954;2023-03-07T06:56:18;3.70;65.30
6270;DHT22;3168;51.684;6.954;2023-03-07T06:58:44;3.50;65.50
6270;DHT22;3168;51.684;6.954;2023-03-07T07:01:16;3.50;65.40
6270;DHT22;3168;51.684;6.954;2023-03-07T07:03:41;3.50;65.50
6270;DHT22;3168;51.684;6.954;2023-03-07T07:06:07;3.50;66.70
6270;DHT22;3168;51.684;6.954;2023-03-07T07:08:33;3.50;66.90
6270;DHT22;3168;51.684;6.954;2023-03-07T07:10:58;3.50;65.20
6270;DHT22;3168;51.684;6.954;2023-03-07T07:13:24;3.50;65.20
6270;DHT22;3168;51.684;6.954;2023-03-07T07:15:50;3.50;61.40
6270;DHT22;3168;51.684;6.954;2023-03-07T07:18:16;3.40;52.00
6270;DHT22;3168;51.684;6.954;2023-03-07T07:20:42;3.50;55.10
6270;DHT22;3168;51.684;6.954;2023-03-07T07:23:07;3.50;54.20
6270;DHT22;3168;51.684;6.954;2023-03-07T07:25:33;3.50;54.70
6270;DHT22;3168;51.684;6.954;2023-03-07T07:27:59;3.40;52.10
6270;DHT22;3168;51.684;6.954;2023-03-07T07:30:25;3.40;53.40
6270;DHT22;3168;51.684;6.954;2023-03-07T07:32:51;3.40;52.90
6270;DHT22;3168;51.684;6.954;2023-03-07T07:35:17;3.40;53.00
6270;DHT22;3168;51.684;6.954;2023-03-07T07:37:43;3.40;55.00
6270;DHT22;3168;51.684;6.954;2023-03-07T07:40:09;3.40;56.50
6270;DHT22;3168;51.684;6.954;2023-03-07T07:42:35;3.50;60.50
6270;DHT22;3168;51.684;6.954;2023-03-07T07:45:01;3.40;60.40
6270;DHT22;3168;51.684;6.954;2023-03-07T07:47:27;3.40;60.70
6270;DHT22;3168;51.684;6.954;2023-03-07T07:49:53;3.40;62.60
6270;DHT22;3168;51.684;6.954;2023-03-07T07:52:19;3.20;57.40
6270;DHT22;3168;51.684;6.954;2023-03-07T07:54:45;3.10;59.80
6270;DHT22;3168;51.684;6.954;2023-03-07T07:57:11;3.20;60.00
6270;DHT22;3168;51.684;6.954;2023-03-07T07:59:36;3.10;57.80
6270;DHT22;3168;51.684;6.954;2023-03-07T08:02:02;3.20;60.60
6270;DHT22;3168;51.684;6.954;2023-03-07T08:04:28;3.20;58.80
6270;DHT22;3168;51.684;6.954;2023-03-07T08:06:54;3.10;57.50
6270;DHT22;3168;51.684;6.954;2023-03-07T08:09:20;3.00;50.70
6270;DHT22;3168;51.684;6.954;2023-03-07T08:11:46;2.80;51.60
6270;DHT22;3168;51.684;6.954;2023-03-07T08:14:12;2.70;49.90
6270;DHT22;3168;51.684;6.954;2023-03-07T08:16:38;2.70;49.00
6270;DHT22;3168;51.684;6.954;2023-03-07T08:19:04;2.70;50.00
6270;DHT22;3168;51.684;6.954;2023-03-07T08:21:30;2.80;51.10
6270;DHT22;3168;51.684;6.954;2023-03-07T08:23:56;2.80;51.30
6270;DHT22;3168;51.684;6.954;2023-03-07T08:26:21;2.70;46.80
6270;DHT22;3168;51.684;6.954;2023-03-07T08:28:47;2.70;48.20
6270;DHT22;3168;51.684;6.954;2023-03-07T08:31:15;2.70;48.60
6270;DHT22;3168;51.684;6.954;2023-03-07T08:33:40;2.70;47.50
6270;DHT22;3168;51.684;6.954;2023-03-07T08:36:06;2.70;48.20
6270;DHT22;3168;51.684;6.954;2023-03-07T08:38:33;2.70;48.10
6270;DHT22;3168;51.684;6.954;2023-03-07T08:41:00;2.80;51.70
6270;DHT22;3168;51.684;6.954;2023-03-07T08:43:27;2.70;43.90
6270;DHT22;3168;51.684;6.954;2023-03-07T08:45:51;2.60;45.50
6270;DHT22;3168;51.684;6.954;2023-03-07T08:48:17;2.50;42.10
6270;DHT22;3168;51.684;6.954;2023-03-07T08:50:43;2.60;46.50
6270;DHT22;3168;51.684;6.954;2023-03-07T09:01:41;2.50;40.10
6270;DHT22;3168;51.684;6.954;2023-03-07T09:04:07;2.50;42.00
6270;DHT22;3168;51.684;6.954;2023-03-07T09:06:33;2.40;40.50
6270;DHT22;3168;51.684;6.954;2023-03-07T09:08:59;2.40;41.60
6270;DHT22;3168;51.684;6.954;2023-03-07T09:11:24;2.30;42.40
6270;DHT22;3168;51.684;6.954;2023-03-07T09:13:50;2.30;42.70
6270;DHT22;3168;51.684;6.954;2023-03-07T09:16:16;2.40;44.00
6270;DHT22;3168;51.684;6.954;2023-03-07T09:18:42;2.40;40.00
6270;DHT22;3168;51.684;6.954;2023-03-07T09:21:08;2.40;41.70
6270;DHT22;3168;51.684;6.954;2023-03-07T09:23:34;2.50;39.40
6270;DHT22;3168;51.684;6.954;2023-03-07T09:26:00;2.30;34.70
6270;DHT22;3168;51.684;6.954;2023-03-07T09:28:26;2.30;37.20
6270;DHT22;3168;51.684;6.954;2023-03-07T09:30:52;2.30;37.20
6270;DHT22;3168;51.684;6.954;2023-03-07T09:33:18;2.30;40.00
6270;DHT22;3168;51.684;6.954;2023-03-07T09:35:44;2.20;37.60
6270;DHT22;3168;51.684;6.954;2023-03-07T09:38:09;2.20;34.90
6270;DHT22;3168;51.684;6.954;2023-03-07T09:40:35;2.10;36.40
6270;DHT22;3168;51.684;6.954;2023-03-07T09:45:41;2.10;37.60
6270;DHT22;3168;51.684;6.954;2023-03-07T09:48:27;2.00;37.00
6270;DHT22;3168;51.684;6.954;2023-03-07T09:50:51;2.00;36.60
6270;DHT22;3168;51.684;6.954;2023-03-07T09:53:50;2.00;39.40
6270;DHT22;3168;51.684;6.954;2023-03-07T09:55:58;2.10;38.40
6270;DHT22;3168;51.684;6.954;2023-03-07T09:58:24;2.20;40.80
6270;DHT22;3168;51.684;6.954;2023-03-07T10:00:54;2.20;36.80
6270;DHT22;3168;51.684;6.954;2023-03-07T10:03:32;2.00;32.70
6270;DHT22;3168;51.684;6.954;2023-03-07T10:06:11;2.10;37.20
6270;DHT22;3168;51.684;6.954;2023-03-07T10:08:38;2.10;34.90
6270;DHT22;3168;51.684;6.954;2023-03-07T10:11:12;2.20;37.60
6270;DHT22;3168;51.684;6.954;2023-03-07T10:16:45;2.40;36.40
6270;DHT22;3168;51.684;6.954;2023-03-07T10:18:59;2.30;35.90
6270;DHT22;3168;51.684;6.954;2023-03-07T10:21:28;2.10;31.90
6270;DHT22;3168;51.684;6.954;2023-03-07T10:26:46;2.10;32.20
6270;DHT22;3168;51.684;6.954;2023-03-07T10:29:15;2.00;35.20
6270;DHT22;3168;51.684;6.954;2023-03-07T10:31:40;2.00;36.60
6270;DHT22;3168;51.684;6.954;2023-03-07T10:36:41;2.10;36.90
6270;DHT22;3168;51.684;6.954;2023-03-07T10:39:21;2.10;36.90
6270;DHT22;3168;51.684;6.954;2023-03-07T10:41:44;2.20;37.00
6270;DHT22;3168;51.684;6.954;2023-03-07T10:44:12;2.20;36.60
6270;DHT22;3168;51.684;6.954;2023-03-07T10:46:35;2.20;34.40
6270;DHT22;3168;51.684;6.954;2023-03-07T10:49:08;2.20;34.60
6270;DHT22;3168;51.684;6.954;2023-03-07T10:54:27;2.20;32.40
6270;DHT22;3168;51.684;6.954;2023-03-07T10:57:10;2.10;28.70
6270;DHT22;3168;51.684;6.954;2023-03-07T10:59:36;2.10;31.80
6270;DHT22;3168;51.684;6.954;2023-03-07T11:02:01;2.10;29.90
6270;DHT22;3168;51.684;6.954;2023-03-07T11:04:27;2.10;30.30
6270;DHT22;3168;51.684;6.954;2023-03-07T11:06:57;2.20;29.50
6270;DHT22;3168;51.684;6.954;2023-03-07T11:09:25;2.10;28.20
6270;DHT22;3168;51.684;6.954;2023-03-07T11:11:56;2.10;29.20
6270;DHT22;3168;51.684;6.954;2023-03-07T11:14:21;2.30;32.70
6270;DHT22;3168;51.684;6.954;2023-03-07T11:16:50;2.40;32.40
6270;DHT22;3168;51.684;6.954;2023-03-07T11:19:30;2.30;29.80
6270;DHT22;3168;51.684;6.954;2023-03-07T11:21:57;2.50;32.20
6270;DHT22;3168;51.684;6.954;2023-03-07T11:24:24;2.40;28.20
6270;DHT22;3168;51.684;6.954;2023-03-07T11:26:51;2.30;26.30
6270;DHT22;3168;51.684;6.954;2023-03-07T11:29:14;2.50;31.90
6270;DHT22;3168;51.684;6.954;2023-03-07T11:31:51;2.50;29.90
6270;DHT22;3168;51.684;6.954;2023-03-07T11:34:39;2.50;29.70
6270;DHT22;3168;51.684;6.954;2023-03-07T11:39:53;2.60;29.50
6270;DHT22;3168;51.684;6.954;2023-03-07T11:42:17;2.70;30.30
6270;DHT22;3168;51.684;6.954;2023-03-07T11:50:20;2.80;24.90
6270;DHT22;3168;51.684;6.954;2023-03-07T11:53:08;2.70;21.00
6270;DHT22;3168;51.684;6.954;2023-03-07T11:55:45;2.80;22.30
6270;DHT22;3168;51.684;6.954;2023-03-07T11:58:19;2.90;22.70
6270;DHT22;3168;51.684;6.954;2023-03-07T12:01:07;2.90;21.10
6270;DHT22;3168;51.684;6.954;2023-03-07T12:03:57;2.90;22.60
6270;DHT22;3168;51.684;6.954;2023-03-07T12:06:39;2.80;16.80
6270;DHT22;3168;51.684;6.954;2023-03-07T12:09:38;2.80;17.20
6270;DHT22;3168;51.684;6.954;2023-03-07T12:15:01;2.70;16.80
6270;DHT22;3168;51.684;6.954;2023-03-07T12:20:29;2.70;18.50
6270;DHT22;3168;51.684;6.954;2023-03-07T12:23:14;2.80;18.10
6270;DHT22;3168;51.684;6.954;2023-03-07T12:25:41;2.60;21.00
6270;DHT22;3168;51.684;6.954;2023-03-07T12:28:12;2.70;23.30
6270;DHT22;3168;51.684;6.954;2023-03-07T12:30:53;2.70;24.30
6270;DHT22;3168;51.684;6.954;2023-03-07T12:36:02;2.80;26.80
6270;DHT22;3168;51.684;6.954;2023-03-07T12:38:47;2.80;28.10
6270;DHT22;3168;51.684;6.954;2023-03-07T12:41:22;2.80;25.40
6270;DHT22;3168;51.684;6.954;2023-03-07T12:43:45;2.90;26.20
6270;DHT22;3168;51.684;6.954;2023-03-07T12:46:17;3.00;26.20
6270;DHT22;3168;51.684;6.954;2023-03-07T12:48:45;3.00;23.40
6270;DHT22;3168;51.684;6.954;2023-03-07T12:51:14;3.10;23.50
6270;DHT22;3168;51.684;6.954;2023-03-07T12:53:39;3.00;18.10
6270;DHT22;3168;51.684;6.954;2023-03-07T12:56:13;3.00;17.30
6270;DHT22;3168;51.684;6.954;2023-03-07T12:58:48;2.90;13.40
6270;DHT22;3168;51.684;6.954;2023-03-07T13:01:13;2.90;14.20
6270;DHT22;3168;51.684;6.954;2023-03-07T13:03:40;3.00;14.50
6270;DHT22;3168;51.684;6.954;2023-03-07T13:06:04;3.20;15.10
6270;DHT22;3168;51.684;6.954;2023-03-07T13:08:30;3.10;13.50
6270;DHT22;3168;51.684;6.954;2023-03-07T13:10:56;3.20;11.60
6270;DHT22;3168;51.684;6.954;2023-03-07T13:16:00;3.10;9.80
6270;DHT22;3168;51.684;6.954;2023-03-07T13:18:27;3.20;13.00
6270;DHT22;3168;51.684;6.954;2023-03-07T13:21:09;3.10;9.50
6270;DHT22;3168;51.684;6.954;2023-03-07T13:23:33;3.20;10.00
6270;DHT22;3168;51.684;6.954;2023-03-07T13:26:00;3.30;11.50
6270;DHT22;3168;51.684;6.954;2023-03-07T13:28:36;3.20;5.50
6270;DHT22;3168;51.684;6.954;2023-03-07T13:31:10;3.20;5.30
6270;DHT22;3168;51.684;6.954;2023-03-07T13:33:35;3.40;7.10
6270;DHT22;3168;51.684;6.954;2023-03-07T13:36:00;3.40;6.60
6270;DHT22;3168;51.684;6.954;2023-03-07T13:38:30;3.40;2.20
6270;DHT22;3168;51.684;6.954;2023-03-07T13:40:56;3.50;5.70
6270;DHT22;3168;51.684;6.954;2023-03-07T13:46:43;3.50;1.00
6270;DHT22;3168;51.684;6.954;2023-03-07T13:48:57;3.40;1.50
6270;DHT22;3168;51.684;6.954;2023-03-07T13:51:23;3.40;1.00
6270;DHT22;3168;51.684;6.954;2023-03-07T13:53:49;3.40;1.00
6270;DHT22;3168;51.684;6.954;2023-03-07T13:56:20;3.10;1.20
6270;DHT22;3168;51.684;6.954;2023-03-07T13:58:50;3.40;5.60
6270;DHT22;3168;51.684;6.954;2023-03-07T14:01:18;3.40;5.70
6270;DHT22;3168;51.684;6.954;2023-03-07T14:03:44;3.30;5.60
6270;DHT22;3168;51.684;6.954;2023-03-07T14:06:14;3.50;9.70
6270;DHT22;3168;51.684;6.954;2023-03-07T14:08:38;3.50;6.90
6270;DHT22;3168;51.684;6.954;2023-03-07T14:11:04;3.50;5.70
6270;DHT22;3168;51.684;6.954;2023-03-07T14:16:37;3.40;2.30
6270;DHT22;3168;51.684;6.954;2023-03-07T14:21:51;3.30;1.60
6270;DHT22;3168;51.684;6.954;2023-03-07T14:24:34;3.30;5.50
6270;DHT22;3168;51.684;6.954;2023-03-07T14:26:57;3.40;5.70
6270;DHT22;3168;51.684;6.954;2023-03-07T14:29:24;3.30;4.70
6270;DHT22;3168;51.684;6.954;2023-03-07T14:31:50;3.40;8.60
6270;DHT22;3168;51.684;6.954;2023-03-07T14:34:29;3.40;5.60
6270;DHT22;3168;51.684;6.954;2023-03-07T14:37:00;3.30;5.60
6270;DHT22;3168;51.684;6.954;2023-03-07T14:39:35;3.30;7.80
6270;DHT22;3168;51.684;6.954;2023-03-07T14:41:57;3.40;10.50
6270;DHT22;3168;51.684;6.954;2023-03-07T14:44:31;3.40;10.40
6270;DHT22;3168;51.684;6.954;2023-03-07T14:47:15;3.40;9.70
6270;DHT22;3168;51.684;6.954;2023-03-07T14:49:44;3.20;4.30
6270;DHT22;3168;51.684;6.954;2023-03-07T14:52:11;3.10;1.40
6270;DHT22;3168;51.684;6.954;2023-03-07T14:54:34;3.10;5.30
6270;DHT22;3168;51.684;6.954;2023-03-07T14:57:00;3.20;8.70
6270;DHT22;3168;51.684;6.954;2023-03-07T14:59:26;3.20;9.80
6270;DHT22;3168;51.684;6.954;2023-03-07T15:01:52;3.00;10.00
6270;DHT22;3168;51.684;6.954;2023-03-07T15:04:22;3.40;13.60
6270;DHT22;3168;51.684;6.954;2023-03-07T15:06:51;3.30;12.20
6270;DHT22;3168;51.684;6.954;2023-03-07T15:09:12;3.50;12.10
6270;DHT22;3168;51.684;6.954;2023-03-07T15:11:40;3.50;10.20
6270;DHT22;3168;51.684;6.954;2023-03-07T15:14:12;3.40;6.50
6270;DHT22;3168;51.684;6.954;2023-03-07T15:16:38;3.30;5.60
6270;DHT22;3168;51.684;6.954;2023-03-07T15:19:13;3.30;6.90
6270;DHT22;3168;51.684;6.954;2023-03-07T15:21:38;3.30;8.90
6270;DHT22;3168;51.684;6.954;2023-03-07T15:24:03;3.10;4.10
6270;DHT22;3168;51.684;6.954;2023-03-07T15:26:30;3.10;7.60
6270;DHT22;3168;51.684;6.954;2023-03-07T15:28:57;3.10;9.40
6270;DHT22;3168;51.684;6.954;2023-03-07T15:31:22;2.90;12.80
6270;DHT22;3168;51.684;6.954;2023-03-07T15:33:48;2.90;13.40
6270;DHT22;3168;51.684;6.954;2023-03-07T15:36:16;2.80;13.30
6270;DHT22;3168;51.684;6.954;2023-03-07T15:38:42;2.60;13.10
6270;DHT22;3168;51.684;6.954;2023-03-07T15:43:45;2.70;16.10
6270;DHT22;3168;51.684;6.954;2023-03-07T15:46:15;2.70;9.40
6270;DHT22;3168;51.684;6.954;2023-03-07T15:48:47;2.60;8.10
6270;DHT22;3168;51.684;6.954;2023-03-07T15:51:14;2.40;10.90
6270;DHT22;3168;51.684;6.954;2023-03-07T15:53:40;2.40;13.00
6270;DHT22;3168;51.684;6.954;2023-03-07T15:56:22;2.40;15.10
6270;DHT22;3168;51.684;6.954;2023-03-07T15:58:47;2.20;13.90
6270;DHT22;3168;51.684;6.954;2023-03-07T16:01:16;2.40;14.10
6270;DHT22;3168;51.684;6.954;2023-03-07T16:03:49;2.30;15.60
6270;DHT22;3168;51.684;6.954;2023-03-07T16:06:54;2.40;18.40
6270;DHT22;3168;51.684;6.954;2023-03-07T16:09:04;2.40;18.00
6270;DHT22;3168;51.684;6.954;2023-03-07T16:11:30;2.30;17.60
6270;DHT22;3168;51.684;6.954;2023-03-07T16:13:55;2.30;20.60
6270;DHT22;3168;51.684;6.954;2023-03-07T16:16:22;2.30;21.70
6270;DHT22;3168;51.684;6.954;2023-03-07T16:18:47;2.30;22.80
6270;DHT22;3168;51.684;6.954;2023-03-07T16:21:14;2.40;24.60
6270;DHT22;3168;51.684;6.954;2023-03-07T16:23:39;2.30;22.70
6270;DHT22;3168;51.684;6.954;2023-03-07T16:26:05;2.20;22.80
6270;DHT22;3168;51.684;6.954;2023-03-07T16:28:31;2.20;24.40
6270;DHT22;3168;51.684;6.954;2023-03-07T16:30:57;2.30;23.90
6270;DHT22;3168;51.684;6.954;2023-03-07T16:33:22;2.20;24.10
6270;DHT22;3168;51.684;6.954;2023-03-07T16:35:50;2.20;27.80
6270;DHT22;3168;51.684;6.954;2023-03-07T16:38:16;2.40;30.10
6270;DHT22;3168;51.684;6.954;2023-03-07T16:40:43;2.40;28.50
6270;DHT22;3168;51.684;6.954;2023-03-07T16:43:30;2.20;30.60
6270;DHT22;3168;51.684;6.954;2023-03-07T16:45:54;2.50;32.40
6270;DHT22;3168;51.684;6.954;2023-03-07T16:48:20;2.40;29.40
6270;DHT22;3168;51.684;6.954;2023-03-07T16:50:45;2.50;29.80
6270;DHT22;3168;51.684;6.954;2023-03-07T16:53:11;2.40;29.30
6270;DHT22;3168;51.684;6.954;2023-03-07T16:55:37;2.40;29.40
6270;DHT22;3168;51.684;6.954;2023-03-07T16:58:03;2.40;28.40
6270;DHT22;3168;51.684;6.954;2023-03-07T17:00:29;2.40;29.90
6270;DHT22;3168;51.684;6.954;2023-03-07T17:02:56;2.40;30.00
6270;DHT22;3168;51.684;6.954;2023-03-07T17:05:23;2.40;30.00
6270;DHT22;3168;51.684;6.954;2023-03-07T17:07:52;2.50;31.70
6270;DHT22;3168;51.684;6.954;2023-03-07T17:10:17;2.50;31.70
6270;DHT22;3168;51.684;6.954;2023-03-07T17:12:43;2.40;27.10
6270;DHT22;3168;51.684;6.954;2023-03-07T17:15:12;2.30;25.10
6270;DHT22;3168;51.684;6.954;2023-03-07T17:17:36;2.30;27.20